sensor_id;sensor_type;location;lat;lon;timestamp;P1;durP1;ratioP1;P2;durP2;ratioP2
12910;SDS011;6523;49.758;6.120;2023-02-25T00:00:45;4.40;;;1.90;;
12910;SDS011;6523;49.758;6.120;2023-02-25T00:03:11;5.33;;;1.97;;
12910;SDS011;6523;49.758;6.120;2023-02-25T00:05:39;3.93;;;1.90;;
12910;SDS011;6523;49.758;6.120;2023-02-25T00:08:05;2.87;;;1.80;;
12910;SDS011;6523;49.758;6.120;2023-02-25T00:10:31;7.47;;;2.50;;
12910;SDS011;6523;49.758;6.120;2023-02-25T00:12:57;4.17;;;1.93;;
12910;SDS011;6523;49.758;6.120;2023-02-25T00:15:23;5.67;;;1.97;;
12910;SDS011;6523;49.758;6.120;2023-02-25T00:17:49;2.60;;;1.73;;
12910;SDS011;6523;49.758;6.120;2023-02-25T00:20:15;6.53;;;2.60;;
12910;SDS011;6523;49.758;6.120;2023-02-25T00:22:44;6.60;;;2.47;;
12910;SDS011;6523;49.758;6.120;2023-02-25T00:25:10;3.23;;;2.10;;
12910;SDS011;6523;49.758;6.120;2023-02-25T00:27:35;5.77;;;2.30;;
12910;SDS011;6523;49.758;6.120;2023-02-25T00:30:01;5.33;;;2.50;;
12910;SDS011;6523;49.758;6.120;2023-02-25T00:32:28;3.47;;;2.10;;
12910;SDS011;6523;49.758;6.120;2023-02-25T00:34:53;6.27;;;2.60;;
12910;SDS011;6523;49.758;6.120;2023-02-25T00:37:19;5.47;;;2.40;;
12910;SDS011;6523;49.758;6.120;2023-02-25T00:39:45;4.93;;;2.60;;
12910;SDS011;6523;49.758;6.120;2023-02-25T00:42:11;5.73;;;2.50;;
12910;SDS011;6523;49.758;6.120;2023-02-25T00:44:39;5.70;;;2.37;;
12910;SDS011;6523;49.758;6.120;2023-02-25T00:47:07;7.33;;;2.60;;
12910;SDS011;6523;49.758;6.120;2023-02-25T00:49:32;6.10;;;2.30;;
12910;SDS011;6523;49.758;6.120;2023-02-25T00:51:58;7.20;;;2.93;;
12910;SDS011;6523;49.758;6.120;2023-02-25T00:54:24;3.33;;;2.30;;
12910;SDS011;6523;49.758;6.120;2023-02-25T00:56:50;3.73;;;2.40;;
12910;SDS011;6523;49.758;6.120;2023-02-25T00:59:15;7.30;;;2.97;;
12910;SDS011;6523;49.758;6.120;2023-02-25T01:01:41;4.60;;;2.33;;
12910;SDS011;6523;49.758;6.120;2023-02-25T01:04:07;6.90;;;2.77;;
12910;SDS011;6523;49.758;6.120;2023-02-25T01:06:33;5.60;;;3.23;;
12910;SDS011;6523;49.758;6.120;2023-02-25T01:09:00;5.27;;;2.23;;
12910;SDS011;6523;49.758;6.120;2023-02-25T01:11:31;7.87;;;2.77;;
12910;SDS011;6523;49.758;6.120;2023-02-25T01:14:04;3.93;;;2.33;;
12910;SDS011;6523;49.758;6.120;2023-02-25T01:16:31;3.87;;;2.27;;
12910;SDS011;6523;49.758;6.120;2023-02-25T01:19:05;6.23;;;2.60;;
12910;SDS011;6523;49.758;6.120;2023-02-25T01:21:37;2.50;;;2.17;;
12910;SDS011;6523;49.758;6.120;2023-02-25T01:24:15;3.97;;;2.13;;
12910;SDS011;6523;49.758;6.120;2023-02-25T01:26:45;7.20;;;2.83;;
12910;SDS011;6523;49.758;6.120;2023-02-25T01:29:14;6.90;;;3.17;;
12910;SDS011;6523;49.758;6.120;2023-02-25T01:31:41;6.60;;;3.03;;
12910;SDS011;6523;49.758;6.120;2023-02-25T01:34:08;6.77;;;2.77;;
12910;SDS011;6523;49.758;6.120;2023-02-25T01:36:36;6.00;;;3.37;;
12910;SDS011;6523;49.758;6.120;2023-02-25T01:39:02;7.47;;;3.30;;
12910;SDS011;6523;49.758;6.120;2023-02-25T01:41:29;9.47;;;2.83;;
12910;SDS011;6523;49.758;6.120;2023-02-25T01:46:30;9.50;;;3.27;;
12910;SDS011;6523;49.758;6.120;2023-02-25T01:48:56;7.57;;;3.00;;
12910;SDS011;6523;49.758;6.120;2023-02-25T01:51:22;6.73;;;2.57;;
12910;SDS011;6523;49.758;6.120;2023-02-25T01:53:51;5.87;;;2.93;;
12910;SDS011;6523;49.758;6.120;2023-02-25T01:56:19;4.80;;;2.90;;
12910;SDS011;6523;49.758;6.120;2023-02-25T01:58:49;6.93;;;3.43;;
12910;SDS011;6523;49.758;6.120;2023-02-25T02:01:16;5.90;;;2.80;;
12910;SDS011;6523;49.758;6.120;2023-02-25T02:03:45;6.03;;;2.60;;
12910;SDS011;6523;49.758;6.120;2023-02-25T02:06:12;6.93;;;2.63;;
12910;SDS011;6523;49.758;6.120;2023-02-25T02:08:42;3.70;;;2.53;;
12910;SDS011;6523;49.758;6.120;2023-02-25T02:11:08;7.17;;;3.43;;
12910;SDS011;6523;49.758;6.120;2023-02-25T02:13:35;6.30;;;2.93;;
12910;SDS011;6523;49.758;6.120;2023-02-25T02:16:08;5.70;;;3.03;;
12910;SDS011;6523;49.758;6.120;2023-02-25T02:18:57;6.67;;;2.90;;
12910;SDS011;6523;49.758;6.120;2023-02-25T02:38:10;10.83;;;3.37;;
12910;SDS011;6523;49.758;6.120;2023-02-25T02:43:10;8.10;;;3.20;;
12910;SDS011;6523;49.758;6.120;2023-02-25T02:46:17;7.27;;;2.90;;
12910;SDS011;6523;49.758;6.120;2023-02-25T02:48:50;7.93;;;3.20;;
12910;SDS011;6523;49.758;6.120;2023-02-25T02:51:22;8.90;;;3.57;;
12910;SDS011;6523;49.758;6.120;2023-02-25T02:53:54;8.93;;;3.37;;
12910;SDS011;6523;49.758;6.120;2023-02-25T02:56:23;6.70;;;2.90;;
12910;SDS011;6523;49.758;6.120;2023-02-25T02:58:52;8.70;;;3.43;;
12910;SDS011;6523;49.758;6.120;2023-02-25T03:01:30;10.87;;;2.77;;
12910;SDS011;6523;49.758;6.120;2023-02-25T03:04:05;7.37;;;2.67;;
12910;SDS011;6523;49.758;6.120;2023-02-25T03:06:38;11.33;;;3.13;;
12910;SDS011;6523;49.758;6.120;2023-02-25T03:09:09;7.10;;;2.60;;
12910;SDS011;6523;49.758;6.120;2023-02-25T03:11:39;8.87;;;2.90;;
12910;SDS011;6523;49.758;6.120;2023-02-25T03:14:05;8.13;;;2.30;;
12910;SDS011;6523;49.758;6.120;2023-02-25T03:16:43;8.10;;;3.50;;
12910;SDS011;6523;49.758;6.120;2023-02-25T03:19:24;6.63;;;2.83;;
12910;SDS011;6523;49.758;6.120;2023-02-25T03:22:00;7.60;;;3.27;;
12910;SDS011;6523;49.758;6.120;2023-02-25T03:24:34;8.00;;;2.57;;
12910;SDS011;6523;49.758;6.120;2023-02-25T03:28:06;9.20;;;2.63;;
12910;SDS011;6523;49.758;6.120;2023-02-25T03:30:07;12.50;;;3.67;;
12910;SDS011;6523;49.758;6.120;2023-02-25T03:32:40;12.17;;;2.87;;
12910;SDS011;6523;49.758;6.120;2023-02-25T03:35:10;7.10;;;2.90;;
12910;SDS011;6523;49.758;6.120;2023-02-25T03:37:38;10.00;;;2.70;;
12910;SDS011;6523;49.758;6.120;2023-02-25T03:40:08;10.40;;;2.77;;
12910;SDS011;6523;49.758;6.120;2023-02-25T03:42:45;4.73;;;2.47;;
12910;SDS011;6523;49.758;6.120;2023-02-25T03:45:17;6.30;;;2.47;;
12910;SDS011;6523;49.758;6.120;2023-02-25T03:47:43;6.07;;;2.80;;
12910;SDS011;6523;49.758;6.120;2023-02-25T03:50:13;8.67;;;2.90;;
12910;SDS011;6523;49.758;6.120;2023-02-25T03:52:44;4.93;;;2.20;;
12910;SDS011;6523;49.758;6.120;2023-02-25T03:55:10;5.80;;;2.20;;
12910;SDS011;6523;49.758;6.120;2023-02-25T03:57:39;8.20;;;2.40;;
12910;SDS011;6523;49.758;6.120;2023-02-25T04:00:11;9.50;;;2.80;;
12910;SDS011;6523;49.758;6.120;2023-02-25T04:02:46;6.77;;;2.50;;
12910;SDS011;6523;49.758;6.120;2023-02-25T04:05:12;11.70;;;2.97;;
12910;SDS011;6523;49.758;6.120;2023-02-25T04:07:39;10.47;;;2.90;;
12910;SDS011;6523;49.758;6.120;2023-02-25T04:10:06;10.73;;;3.73;;
12910;SDS011;6523;49.758;6.120;2023-02-25T04:12:34;7.30;;;3.03;;
12910;SDS011;6523;49.758;6.120;2023-02-25T04:15:00;7.47;;;2.87;;
12910;SDS011;6523;49.758;6.120;2023-02-25T04:17:26;8.77;;;2.70;;
12910;SDS011;6523;49.758;6.120;2023-02-25T04:19:52;12.73;;;3.20;;
12910;SDS011;6523;49.758;6.120;2023-02-25T04:22:18;9.93;;;3.43;;
12910;SDS011;6523;49.758;6.120;2023-02-25T04:24:43;9.63;;;3.80;;
12910;SDS011;6523;49.758;6.120;2023-02-25T04:27:09;7.73;;;3.23;;
12910;SDS011;6523;49.758;6.120;2023-02-25T04:29:35;6.60;;;3.50;;
12910;SDS011;6523;49.758;6.120;2023-02-25T04:32:00;6.43;;;3.87;;
12910;SDS011;6523;49.758;6.120;2023-02-25T04:34:26;8.57;;;3.50;;
12910;SDS011;6523;49.758;6.120;2023-02-25T04:36:52;5.47;;;2.80;;
12910;SDS011;6523;49.758;6.120;2023-02-25T04:39:17;8.00;;;3.67;;
12910;SDS011;6523;49.758;6.120;2023-02-25T04:41:43;11.67;;;4.00;;
12910;SDS011;6523;49.758;6.120;2023-02-25T04:44:09;10.17;;;3.60;;
12910;SDS011;6523;49.758;6.120;2023-02-25T04:46:36;12.60;;;4.30;;
12910;SDS011;6523;49.758;6.120;2023-02-25T04:49:05;12.73;;;4.10;;
12910;SDS011;6523;49.758;6.120;2023-02-25T04:51:31;9.37;;;4.20;;
12910;SDS011;6523;49.758;6.120;2023-02-25T04:53:58;7.50;;;4.17;;
12910;SDS011;6523;49.758;6.120;2023-02-25T04:56:23;7.20;;;3.77;;
12910;SDS011;6523;49.758;6.120;2023-02-25T04:58:49;6.03;;;3.67;;
12910;SDS011;6523;49.758;6.120;2023-02-25T05:01:15;6.43;;;3.60;;
12910;SDS011;6523;49.758;6.120;2023-02-25T05:03:41;11.90;;;3.90;;
12910;SDS011;6523;49.758;6.120;2023-02-25T05:06:07;7.00;;;3.23;;
12910;SDS011;6523;49.758;6.120;2023-02-25T05:08:33;7.67;;;3.77;;
12910;SDS011;6523;49.758;6.120;2023-02-25T05:11:00;7.83;;;4.03;;
12910;SDS011;6523;49.758;6.120;2023-02-25T05:13:26;8.13;;;3.90;;
12910;SDS011;6523;49.758;6.120;2023-02-25T05:16:01;9.50;;;4.13;;
12910;SDS011;6523;49.758;6.120;2023-02-25T05:18:28;11.90;;;5.10;;
12910;SDS011;6523;49.758;6.120;2023-02-25T05:20:54;9.70;;;4.47;;
12910;SDS011;6523;49.758;6.120;2023-02-25T05:23:19;6.40;;;3.53;;
12910;SDS011;6523;49.758;6.120;2023-02-25T05:25:45;7.10;;;4.13;;
12910;SDS011;6523;49.758;6.120;2023-02-25T05:28:10;9.30;;;4.30;;
12910;SDS011;6523;49.758;6.120;2023-02-25T05:30:36;9.53;;;4.47;;
12910;SDS011;6523;49.758;6.120;2023-02-25T05:33:03;8.07;;;4.20;;
12910;SDS011;6523;49.758;6.120;2023-02-25T05:35:29;10.07;;;4.47;;
12910;SDS011;6523;49.758;6.120;2023-02-25T05:37:56;8.17;;;3.97;;
12910;SDS011;6523;49.758;6.120;2023-02-25T05:40:23;10.27;;;3.97;;
12910;SDS011;6523;49.758;6.120;2023-02-25T05:42:48;12.30;;;3.97;;
12910;SDS011;6523;49.758;6.120;2023-02-25T05:45:14;9.13;;;4.20;;
12910;SDS011;6523;49.758;6.120;2023-02-25T05:47:41;10.83;;;3.50;;
12910;SDS011;6523;49.758;6.120;2023-02-25T05:50:07;10.00;;;3.90;;
12910;SDS011;6523;49.758;6.120;2023-02-25T05:52:33;10.33;;;3.57;;
12910;SDS011;6523;49.758;6.120;2023-02-25T05:54:58;5.97;;;3.80;;
12910;SDS011;6523;49.758;6.120;2023-02-25T05:57:24;11.03;;;3.80;;
12910;SDS011;6523;49.758;6.120;2023-02-25T05:59:50;12.80;;;4.40;;
12910;SDS011;6523;49.758;6.120;2023-02-25T06:02:15;9.87;;;3.80;;
12910;SDS011;6523;49.758;6.120;2023-02-25T06:04:41;11.67;;;4.63;;
12910;SDS011;6523;49.758;6.120;2023-02-25T06:07:06;9.00;;;3.73;;
12910;SDS011;6523;49.758;6.120;2023-02-25T06:09:32;6.80;;;3.50;;
12910;SDS011;6523;49.758;6.120;2023-02-25T06:11:58;12.30;;;4.20;;
12910;SDS011;6523;49.758;6.120;2023-02-25T06:14:24;11.20;;;4.40;;
12910;SDS011;6523;49.758;6.120;2023-02-25T06:16:50;12.47;;;4.60;;
12910;SDS011;6523;49.758;6.120;2023-02-25T06:19:20;10.77;;;4.53;;
12910;SDS011;6523;49.758;6.120;2023-02-25T06:21:47;8.53;;;4.20;;
12910;SDS011;6523;49.758;6.120;2023-02-25T06:24:12;9.70;;;4.03;;
12910;SDS011;6523;49.758;6.120;2023-02-25T06:26:39;8.47;;;4.20;;
12910;SDS011;6523;49.758;6.120;2023-02-25T06:29:06;8.83;;;4.00;;
12910;SDS011;6523;49.758;6.120;2023-02-25T06:31:34;10.80;;;4.50;;
12910;SDS011;6523;49.758;6.120;2023-02-25T06:33:59;9.03;;;4.20;;
12910;SDS011;6523;49.758;6.120;2023-02-25T06:36:25;9.83;;;4.17;;
12910;SDS011;6523;49.758;6.120;2023-02-25T06:38:51;11.97;;;4.83;;
12910;SDS011;6523;49.758;6.120;2023-02-25T06:41:18;6.43;;;4.27;;
12910;SDS011;6523;49.758;6.120;2023-02-25T06:43:46;8.27;;;4.43;;
12910;SDS011;6523;49.758;6.120;2023-02-25T06:46:15;10.77;;;4.53;;
12910;SDS011;6523;49.758;6.120;2023-02-25T06:48:42;8.23;;;4.10;;
12910;SDS011;6523;49.758;6.120;2023-02-25T06:51:07;8.40;;;4.03;;
12910;SDS011;6523;49.758;6.120;2023-02-25T06:53:38;8.53;;;3.87;;
12910;SDS011;6523;49.758;6.120;2023-02-25T06:56:05;13.90;;;4.37;;
12910;SDS011;6523;49.758;6.120;2023-02-25T06:58:34;11.17;;;4.20;;
12910;SDS011;6523;49.758;6.120;2023-02-25T07:01:04;8.47;;;3.47;;
12910;SDS011;6523;49.758;6.120;2023-02-25T07:03:30;8.47;;;3.50;;
12910;SDS011;6523;49.758;6.120;2023-02-25T07:05:56;8.43;;;3.53;;
12910;SDS011;6523;49.758;6.120;2023-02-25T07:08:21;6.70;;;3.37;;
12910;SDS011;6523;49.758;6.120;2023-02-25T07:10:47;7.13;;;3.50;;
12910;SDS011;6523;49.758;6.120;2023-02-25T07:13:12;7.20;;;3.20;;
12910;SDS011;6523;49.758;6.120;2023-02-25T07:15:38;9.10;;;3.93;;
12910;SDS011;6523;49.758;6.120;2023-02-25T07:18:04;8.23;;;3.50;;
12910;SDS011;6523;49.758;6.120;2023-02-25T07:20:30;5.50;;;3.30;;
12910;SDS011;6523;49.758;6.120;2023-02-25T07:22:55;11.60;;;3.63;;
12910;SDS011;6523;49.758;6.120;2023-02-25T07:25:21;8.20;;;3.93;;
12910;SDS011;6523;49.758;6.120;2023-02-25T07:27:47;10.67;;;3.60;;
12910;SDS011;6523;49.758;6.120;2023-02-25T07:30:12;7.97;;;3.30;;
12910;SDS011;6523;49.758;6.120;2023-02-25T07:32:39;10.20;;;3.80;;
12910;SDS011;6523;49.758;6.120;2023-02-25T07:35:06;6.40;;;3.23;;
12910;SDS011;6523;49.758;6.120;2023-02-25T07:37:33;11.40;;;4.10;;
12910;SDS011;6523;49.758;6.120;2023-02-25T07:39:59;8.43;;;4.00;;
12910;SDS011;6523;49.758;6.120;2023-02-25T07:42:25;7.77;;;3.63;;
12910;SDS011;6523;49.758;6.120;2023-02-25T07:44:51;12.40;;;3.70;;
12910;SDS011;6523;49.758;6.120;2023-02-25T07:47:17;16.17;;;4.30;;
12910;SDS011;6523;49.758;6.120;2023-02-25T07:49:43;12.07;;;4.60;;
12910;SDS011;6523;49.758;6.120;2023-02-25T07:52:09;9.43;;;4.40;;
12910;SDS011;6523;49.758;6.120;2023-02-25T07:54:35;7.03;;;3.20;;
12910;SDS011;6523;49.758;6.120;2023-02-25T07:57:00;12.40;;;3.93;;
12910;SDS011;6523;49.758;6.120;2023-02-25T07:59:26;7.80;;;3.73;;
12910;SDS011;6523;49.758;6.120;2023-02-25T08:01:52;7.60;;;3.53;;
12910;SDS011;6523;49.758;6.120;2023-02-25T08:04:18;7.97;;;3.47;;
12910;SDS011;6523;49.758;6.120;2023-02-25T08:06:44;8.83;;;3.50;;
12910;SDS011;6523;49.758;6.120;2023-02-25T08:09:11;6.70;;;3.00;;
12910;SDS011;6523;49.758;6.120;2023-02-25T08:11:37;5.57;;;3.37;;
12910;SDS011;6523;49.758;6.120;2023-02-25T08:14:03;10.60;;;3.40;;
12910;SDS011;6523;49.758;6.120;2023-02-25T08:16:29;10.70;;;3.63;;
12910;SDS011;6523;49.758;6.120;2023-02-25T08:18:56;10.13;;;3.37;;
12910;SDS011;6523;49.758;6.120;2023-02-25T08:21:22;6.17;;;2.63;;
12910;SDS011;6523;49.758;6.120;2023-02-25T08:23:51;8.10;;;3.83;;
12910;SDS011;6523;49.758;6.120;2023-02-25T08:26:18;7.87;;;4.00;;
12910;SDS011;6523;49.758;6.120;2023-02-25T08:28:46;13.30;;;4.00;;
12910;SDS011;6523;49.758;6.120;2023-02-25T08:31:12;12.30;;;3.20;;
12910;SDS011;6523;49.758;6.120;2023-02-25T08:33:39;7.57;;;3.60;;
12910;SDS011;6523;49.758;6.120;2023-02-25T08:36:11;9.37;;;3.57;;
12910;SDS011;6523;49.758;6.120;2023-02-25T08:38:40;9.87;;;4.63;;
12910;SDS011;6523;49.758;6.120;2023-02-25T08:41:07;10.33;;;4.30;;
12910;SDS011;6523;49.758;6.120;2023-02-25T08:43:33;8.43;;;4.07;;
12910;SDS011;6523;49.758;6.120;2023-02-25T08:45:59;10.83;;;3.47;;
12910;SDS011;6523;49.758;6.120;2023-02-25T08:48:25;7.73;;;4.07;;
12910;SDS011;6523;49.758;6.120;2023-02-25T08:50:50;6.97;;;3.27;;
12910;SDS011;6523;49.758;6.120;2023-02-25T08:53:16;9.50;;;4.10;;
12910;SDS011;6523;49.758;6.120;2023-02-25T08:55:42;9.77;;;4.10;;
12910;SDS011;6523;49.758;6.120;2023-02-25T08:58:08;11.40;;;3.80;;
12910;SDS011;6523;49.758;6.120;2023-02-25T09:00:33;9.20;;;4.10;;
12910;SDS011;6523;49.758;6.120;2023-02-25T09:03:00;10.67;;;4.50;;
12910;SDS011;6523;49.758;6.120;2023-02-25T09:05:25;14.13;;;7.23;;
12910;SDS011;6523;49.758;6.120;2023-02-25T09:07:51;15.90;;;6.93;;
12910;SDS011;6523;49.758;6.120;2023-02-25T09:10:17;13.57;;;6.70;;
12910;SDS011;6523;49.758;6.120;2023-02-25T09:12:43;24.83;;;12.80;;
12910;SDS011;6523;49.758;6.120;2023-02-25T09:15:11;13.67;;;5.43;;
12910;SDS011;6523;49.758;6.120;2023-02-25T09:17:37;11.70;;;4.47;;
12910;SDS011;6523;49.758;6.120;2023-02-25T09:20:04;11.97;;;4.93;;
12910;SDS011;6523;49.758;6.120;2023-02-25T09:22:31;8.03;;;4.30;;
12910;SDS011;6523;49.758;6.120;2023-02-25T09:25:00;8.80;;;4.00;;
12910;SDS011;6523;49.758;6.120;2023-02-25T09:27:25;8.20;;;4.13;;
12910;SDS011;6523;49.758;6.120;2023-02-25T09:29:52;9.07;;;4.70;;
12910;SDS011;6523;49.758;6.120;2023-02-25T09:32:19;10.50;;;5.17;;
12910;SDS011;6523;49.758;6.120;2023-02-25T09:34:45;11.63;;;4.93;;
12910;SDS011;6523;49.758;6.120;2023-02-25T09:37:13;9.00;;;3.73;;
12910;SDS011;6523;49.758;6.120;2023-02-25T09:39:39;5.93;;;3.30;;
12910;SDS011;6523;49.758;6.120;2023-02-25T09:42:10;8.10;;;3.73;;
12910;SDS011;6523;49.758;6.120;2023-02-25T09:44:45;10.40;;;4.23;;
12910;SDS011;6523;49.758;6.120;2023-02-25T09:47:32;7.63;;;3.03;;
12910;SDS011;6523;49.758;6.120;2023-02-25T09:55:40;10.03;;;3.87;;
12910;SDS011;6523;49.758;6.120;2023-02-25T10:10:02;10.17;;;2.87;;
12910;SDS011;6523;49.758;6.120;2023-02-25T10:12:33;12.10;;;3.00;;
12910;SDS011;6523;49.758;6.120;2023-02-25T10:20:33;8.13;;;2.90;;
12910;SDS011;6523;49.758;6.120;2023-02-25T10:26:21;11.20;;;3.60;;
12910;SDS011;6523;49.758;6.120;2023-02-25T10:28:50;4.33;;;2.60;;
12910;SDS011;6523;49.758;6.120;2023-02-25T10:31:20;7.17;;;2.80;;
12910;SDS011;6523;49.758;6.120;2023-02-25T10:33:47;4.97;;;2.50;;
12910;SDS011;6523;49.758;6.120;2023-02-25T10:36:18;8.83;;;2.70;;
12910;SDS011;6523;49.758;6.120;2023-02-25T10:38:52;7.27;;;2.53;;
12910;SDS011;6523;49.758;6.120;2023-02-25T10:41:19;9.00;;;2.30;;
12910;SDS011;6523;49.758;6.120;2023-02-25T10:43:46;7.40;;;2.80;;
12910;SDS011;6523;49.758;6.120;2023-02-25T10:48:56;5.23;;;2.27;;
12910;SDS011;6523;49.758;6.120;2023-02-25T10:51:24;7.80;;;2.70;;
12910;SDS011;6523;49.758;6.120;2023-02-25T10:56:20;6.07;;;2.60;;
12910;SDS011;6523;49.758;6.120;2023-02-25T10:59:57;4.17;;;2.50;;
12910;SDS011;6523;49.758;6.120;2023-02-25T11:01:59;7.80;;;2.77;;
12910;SDS011;6523;49.758;6.120;2023-02-25T11:04:31;6.40;;;2.80;;
12910;SDS011;6523;49.758;6.120;2023-02-25T11:07:00;4.87;;;2.30;;
12910;SDS011;6523;49.758;6.120;2023-02-25T11:09:27;5.37;;;2.67;;
12910;SDS011;6523;49.758;6.120;2023-02-25T11:11:56;6.00;;;2.87;;
12910;SDS011;6523;49.758;6.120;2023-02-25T11:14:43;8.23;;;2.50;;
12910;SDS011;6523;49.758;6.120;2023-02-25T11:19:37;5.97;;;2.50;;
12910;SDS011;6523;49.758;6.120;2023-02-25T11:24:54;7.70;;;2.50;;
12910;SDS011;6523;49.758;6.120;2023-02-25T11:30:04;6.83;;;2.43;;
12910;SDS011;6523;49.758;6.120;2023-02-25T11:32:39;5.73;;;2.70;;
12910;SDS011;6523;49.758;6.120;2023-02-25T11:35:14;7.73;;;2.60;;
12910;SDS011;6523;49.758;6.120;2023-02-25T11:37:45;11.40;;;4.37;;
12910;SDS011;6523;49.758;6.120;2023-02-25T11:42:59;9.23;;;3.37;;
12910;SDS011;6523;49.758;6.120;2023-02-25T11:45:48;9.33;;;2.70;;
12910;SDS011;6523;49.758;6.120;2023-02-25T11:48:23;8.57;;;2.30;;
12910;SDS011;6523;49.758;6.120;2023-02-25T11:50:57;5.17;;;2.23;;
12910;SDS011;6523;49.758;6.120;2023-02-25T11:53:48;6.73;;;2.43;;
12910;SDS011;6523;49.758;6.120;2023-02-25T11:56:35;8.13;;;1.97;;
12910;SDS011;6523;49.758;6.120;2023-02-25T12:19:26;5.93;;;1.67;;
12910;SDS011;6523;49.758;6.120;2023-02-25T12:22:24;5.33;;;1.83;;
12910;SDS011;6523;49.758;6.120;2023-02-25T12:28:03;3.80;;;1.77;;
12910;SDS011;6523;49.758;6.120;2023-02-25T12:36:02;3.70;;;1.50;;
12910;SDS011;6523;49.758;6.120;2023-02-25T12:41:49;4.67;;;1.47;;
12910;SDS011;6523;49.758;6.120;2023-02-25T12:53:20;6.57;;;1.50;;
12910;SDS011;6523;49.758;6.120;2023-02-25T12:59:16;7.20;;;1.60;;
12910;SDS011;6523;49.758;6.120;2023-02-25T13:02:17;4.50;;;1.60;;
12910;SDS011;6523;49.758;6.120;2023-02-25T13:19:48;6.30;;;1.67;;
12910;SDS011;6523;49.758;6.120;2023-02-25T13:22:56;5.03;;;1.90;;
12910;SDS011;6523;49.758;6.120;2023-02-25T13:28:50;5.27;;;1.50;;
12910;SDS011;6523;49.758;6.120;2023-02-25T13:31:35;5.07;;;1.60;;
12910;SDS011;6523;49.758;6.120;2023-02-25T13:34:10;3.20;;;1.50;;
12910;SDS011;6523;49.758;6.120;2023-02-25T13:39:45;4.53;;;1.50;;
12910;SDS011;6523;49.758;6.120;2023-02-25T13:42:26;6.17;;;1.60;;
12910;SDS011;6523;49.758;6.120;2023-02-25T13:51:24;6.60;;;1.70;;
12910;SDS011;6523;49.758;6.120;2023-02-25T14:05:26;3.60;;;1.70;;
12910;SDS011;6523;49.758;6.120;2023-02-25T14:14:00;5.07;;;1.77;;
12910;SDS011;6523;49.758;6.120;2023-02-25T14:22:07;4.10;;;1.57;;
12910;SDS011;6523;49.758;6.120;2023-02-25T14:39:03;3.07;;;1.30;;
12910;SDS011;6523;49.758;6.120;2023-02-25T14:42:22;3.93;;;1.27;;
12910;SDS011;6523;49.758;6.120;2023-02-25T14:47:26;5.37;;;1.40;;
12910;SDS011;6523;49.758;6.120;2023-02-25T14:58:24;4.87;;;1.40;;
12910;SDS011;6523;49.758;6.120;2023-02-25T15:01:11;4.37;;;1.10;;
12910;SDS011;6523;49.758;6.120;2023-02-25T15:03:45;3.20;;;1.17;;
12910;SDS011;6523;49.758;6.120;2023-02-25T15:06:26;2.73;;;1.00;;
12910;SDS011;6523;49.758;6.120;2023-02-25T15:09:26;2.30;;;0.90;;
12910;SDS011;6523;49.758;6.120;2023-02-25T15:14:47;3.17;;;0.83;;
12910;SDS011;6523;49.758;6.120;2023-02-25T15:20:38;2.83;;;0.70;;
12910;SDS011;6523;49.758;6.120;2023-02-25T15:25:40;2.07;;;0.90;;
12910;SDS011;6523;49.758;6.120;2023-02-25T15:33:40;1.53;;;0.90;;
12910;SDS011;6523;49.758;6.120;2023-02-25T15:38:54;0.97;;;0.70;;
12910;SDS011;6523;49.758;6.120;2023-02-25T15:51:45;1.33;;;1.00;;
12910;SDS011;6523;49.758;6.120;2023-02-25T15:54:43;1.90;;;0.70;;
12910;SDS011;6523;49.758;6.120;2023-02-25T15:57:01;1.57;;;0.90;;
12910;SDS011;6523;49.758;6.120;2023-02-25T16:04:50;4.70;;;1.00;;
12910;SDS011;6523;49.758;6.120;2023-02-25T16:07:19;1.90;;;0.70;;
12910;SDS011;6523;49.758;6.120;2023-02-25T16:09:48;2.37;;;1.00;;
12910;SDS011;6523;49.758;6.120;2023-02-25T16:12:18;0.80;;;0.80;;
12910;SDS011;6523;49.758;6.120;2023-02-25T16:14:45;1.93;;;1.00;;
12910;SDS011;6523;49.758;6.120;2023-02-25T16:19:40;1.47;;;0.80;;
12910;SDS011;6523;49.758;6.120;2023-02-25T16:22:15;1.33;;;0.80;;
12910;SDS011;6523;49.758;6.120;2023-02-25T16:24:47;3.03;;;0.73;;
12910;SDS011;6523;49.758;6.120;2023-02-25T16:27:18;1.67;;;1.17;;
12910;SDS011;6523;49.758;6.120;2023-02-25T16:32:46;1.47;;;1.27;;
12910;SDS011;6523;49.758;6.120;2023-02-25T16:40:52;2.10;;;1.00;;
12910;SDS011;6523;49.758;6.120;2023-02-25T16:43:22;2.83;;;1.00;;
12910;SDS011;6523;49.758;6.120;2023-02-25T16:48:21;3.73;;;1.20;;
12910;SDS011;6523;49.758;6.120;2023-02-25T16:51:09;4.37;;;1.37;;
12910;SDS011;6523;49.758;6.120;2023-02-25T16:53:40;1.63;;;1.30;;
12910;SDS011;6523;49.758;6.120;2023-02-25T16:56:12;1.47;;;0.93;;
12910;SDS011;6523;49.758;6.120;2023-02-25T16:59:29;1.87;;;1.10;;
12910;SDS011;6523;49.758;6.120;2023-02-25T17:01:39;2.60;;;1.10;;
12910;SDS011;6523;49.758;6.120;2023-02-25T17:04:31;2.23;;;1.37;;
12910;SDS011;6523;49.758;6.120;2023-02-25T17:09:48;4.43;;;1.17;;
12910;SDS011;6523;49.758;6.120;2023-02-25T17:12:20;2.13;;;1.10;;
12910;SDS011;6523;49.758;6.120;2023-02-25T17:14:48;1.87;;;1.10;;
12910;SDS011;6523;49.758;6.120;2023-02-25T17:17:16;2.73;;;1.20;;
12910;SDS011;6523;49.758;6.120;2023-02-25T17:19:57;2.07;;;0.90;;
12910;SDS011;6523;49.758;6.120;2023-02-25T17:22:24;1.77;;;1.03;;
12910;SDS011;6523;49.758;6.120;2023-02-25T17:24:51;1.87;;;1.00;;
12910;SDS011;6523;49.758;6.120;2023-02-25T17:27:19;1.50;;;1.13;;
12910;SDS011;6523;49.758;6.120;2023-02-25T17:29:47;3.33;;;1.23;;
12910;SDS011;6523;49.758;6.120;2023-02-25T17:32:23;2.13;;;1.30;;
12910;SDS011;6523;49.758;6.120;2023-02-25T17:34:52;4.73;;;1.13;;
12910;SDS011;6523;49.758;6.120;2023-02-25T17:37:19;1.03;;;1.00;;
12910;SDS011;6523;49.758;6.120;2023-02-25T17:39:46;4.27;;;1.40;;
12910;SDS011;6523;49.758;6.120;2023-02-25T17:45:01;2.13;;;1.07;;
12910;SDS011;6523;49.758;6.120;2023-02-25T17:47:32;3.37;;;0.90;;
12910;SDS011;6523;49.758;6.120;2023-02-25T17:50:10;4.43;;;1.30;;
12910;SDS011;6523;49.758;6.120;2023-02-25T17:52:53;3.40;;;1.30;;
12910;SDS011;6523;49.758;6.120;2023-02-25T17:55:24;2.03;;;1.43;;
12910;SDS011;6523;49.758;6.120;2023-02-25T17:57:52;2.87;;;1.10;;
12910;SDS011;6523;49.758;6.120;2023-02-25T18:00:23;4.80;;;1.47;;
12910;SDS011;6523;49.758;6.120;2023-02-25T18:03:06;4.17;;;1.60;;
12910;SDS011;6523;49.758;6.120;2023-02-25T18:06:24;3.23;;;1.37;;
12910;SDS011;6523;49.758;6.120;2023-02-25T18:08:49;4.27;;;1.17;;
12910;SDS011;6523;49.758;6.120;2023-02-25T18:13:54;2.93;;;1.37;;
12910;SDS011;6523;49.758;6.120;2023-02-25T18:18:51;2.73;;;1.30;;
12910;SDS011;6523;49.758;6.120;2023-02-25T18:21:18;4.23;;;1.70;;
12910;SDS011;6523;49.758;6.120;2023-02-25T18:23:44;4.70;;;2.13;;
12910;SDS011;6523;49.758;6.120;2023-02-25T18:26:20;2.67;;;1.90;;
12910;SDS011;6523;49.758;6.120;2023-02-25T18:28:49;4.40;;;1.70;;
12910;SDS011;6523;49.758;6.120;2023-02-25T18:31:23;5.30;;;1.97;;
12910;SDS011;6523;49.758;6.120;2023-02-25T18:33:49;3.83;;;2.10;;
12910;SDS011;6523;49.758;6.120;2023-02-25T18:36:19;3.60;;;1.70;;
12910;SDS011;6523;49.758;6.120;2023-02-25T18:38:48;4.80;;;1.90;;
12910;SDS011;6523;49.758;6.120;2023-02-25T18:41:14;2.40;;;1.90;;
12910;SDS011;6523;49.758;6.120;2023-02-25T18:43:40;5.87;;;1.90;;
12910;SDS011;6523;49.758;6.120;2023-02-25T18:46:07;5.60;;;1.97;;
12910;SDS011;6523;49.758;6.120;2023-02-25T18:48:33;7.23;;;2.20;;
12910;SDS011;6523;49.758;6.120;2023-02-25T18:50:59;5.40;;;1.83;;
12910;SDS011;6523;49.758;6.120;2023-02-25T18:53:25;3.43;;;1.70;;
12910;SDS011;6523;49.758;6.120;2023-02-25T18:55:52;7.97;;;2.60;;
12910;SDS011;6523;49.758;6.120;2023-02-25T18:58:19;6.60;;;2.00;;
12910;SDS011;6523;49.758;6.120;2023-02-25T19:00:46;6.33;;;2.40;;
12910;SDS011;6523;49.758;6.120;2023-02-25T19:03:16;3.93;;;2.00;;
12910;SDS011;6523;49.758;6.120;2023-02-25T19:05:46;5.60;;;2.40;;
12910;SDS011;6523;49.758;6.120;2023-02-25T19:08:15;4.57;;;2.27;;
12910;SDS011;6523;49.758;6.120;2023-02-25T19:10:42;2.70;;;1.80;;
12910;SDS011;6523;49.758;6.120;2023-02-25T19:13:14;5.40;;;1.70;;
12910;SDS011;6523;49.758;6.120;2023-02-25T19:15:43;5.63;;;2.00;;